createdAt,value
2019-04-11T07:04:29.496Z,264.38
2019-04-11T07:05:29.102Z,264.38
2019-04-11T07:06:29.389Z,264.38
2019-04-11T07:07:30.659Z,264.38
2019-04-11T07:08:30.053Z,270.00
2019-04-11T07:09:29.001Z,270.00
2019-04-11T07:10:28.978Z,270.00
2019-04-11T07:11:28.948Z,270.00
2019-04-11T07:12:28.938Z,270.00
2019-04-11T07:13:28.900Z,275.63
2019-04-11T07:14:29.147Z,275.63
2019-04-11T07:15:29.406Z,275.63
2019-04-11T07:16:29.653Z,275.63
2019-04-11T07:17:29.681Z,275.63
2019-04-11T07:18:29.119Z,275.63
2019-04-11T07:19:28.758Z,281.25
2019-04-11T07:20:29.324Z,281.25
2019-04-11T07:21:28.717Z,281.25
2019-04-11T07:22:28.690Z,286.88
2019-04-11T08:23:34.188Z,303.75
2019-04-11T08:24:34.471Z,303.75
2019-04-11T08:25:34.134Z,303.75
2019-04-11T08:26:34.116Z,303.75
2019-04-11T08:27:34.077Z,303.75
2019-04-11T08:28:35.290Z,309.38
2019-04-11T08:29:34.109Z,309.38
2019-04-11T08:30:41.850Z,309.38
2019-04-11T08:31:33.997Z,309.38
2019-04-11T08:32:33.962Z,309.38
2019-04-11T08:33:34.993Z,309.38
2019-04-11T08:34:33.916Z,309.38
2019-04-11T08:35:34.935Z,309.38
2019-04-11T08:36:33.890Z,309.38
2019-04-11T08:37:33.861Z,309.38
2019-04-11T09:07:56.653Z,354.38
2019-04-11T09:08:56.617Z,354.38
2019-04-11T09:09:57.670Z,360.00
2019-04-11T09:10:56.569Z,360.00
2019-04-11T09:11:56.563Z,354.38
2019-04-11T09:12:56.523Z,360.00
2019-04-11T09:13:57.525Z,365.63
2019-04-11T09:14:56.766Z,382.50
2019-04-11T09:15:57.223Z,382.50
2019-04-11T09:17:03.836Z,382.50
2019-04-11T09:18:03.439Z,382.50
2019-04-11T09:18:57.339Z,388.13
2019-04-11T09:19:57.004Z,393.75
2019-04-11T09:20:56.353Z,410.63
2019-04-11T09:21:56.364Z,416.25
2019-04-11T09:22:57.387Z,433.13
2019-04-11T09:23:56.292Z,444.38
2019-04-11T09:24:56.937Z,483.75
2019-04-11T09:30:32.662Z,466.88
2019-04-11T09:31:31.930Z,455.63
2019-04-11T09:32:31.943Z,433.13
2019-04-11T09:33:32.895Z,450.00
2019-04-11T09:34:31.846Z,410.63
2019-04-11T09:35:31.823Z,410.63
2019-04-11T09:36:32.321Z,421.88
2019-04-11T09:37:31.799Z,461.25
2019-04-11T09:38:32.793Z,461.25
2019-04-11T09:39:31.975Z,455.63
2019-04-11T09:40:31.938Z,478.13
2019-04-11T09:41:32.302Z,438.75
2019-04-11T09:42:32.486Z,466.88
2019-04-11T09:43:31.882Z,478.13
2019-04-11T09:44:32.717Z,495.00
2019-04-11T09:45:31.619Z,483.75
2019-04-11T09:46:32.438Z,478.13
2019-04-11T09:47:32.561Z,427.50
2019-04-11T10:05:24.491Z,405.00
2019-04-11T10:06:24.400Z,410.63
2019-04-11T10:07:24.378Z,416.25
2019-04-11T10:08:24.609Z,410.63
2019-04-11T10:09:24.350Z,416.25
2019-04-11T10:10:24.656Z,416.25
2019-04-11T10:11:24.293Z,416.25
2019-04-11T10:12:24.293Z,416.25
2019-04-11T10:13:24.959Z,416.25
2019-04-11T10:14:24.251Z,427.50
2019-04-11T10:27:09.056Z,438.75
2019-04-11T10:28:09.244Z,433.13
2019-04-11T10:29:08.994Z,444.38
2019-04-11T10:30:08.990Z,444.38
2019-04-11T10:31:08.955Z,444.38
2019-04-11T10:32:08.932Z,444.38
2019-04-11T10:33:08.911Z,444.38
2019-04-11T10:34:09.170Z,444.38
2019-04-11T10:46:23.348Z,461.25
2019-04-11T10:47:23.314Z,466.88
2019-04-11T10:48:32.617Z,466.88
2019-04-11T10:49:23.272Z,466.88
2019-04-11T10:50:23.684Z,478.13
2019-04-11T10:51:23.233Z,478.13
2019-04-11T10:52:24.526Z,472.50
2019-04-11T10:53:23.188Z,472.50
2019-04-11T11:04:38.772Z,495.00
2019-04-11T11:05:38.097Z,495.00
2019-04-11T11:06:37.936Z,495.00
2019-04-11T11:07:37.383Z,511.88
2019-04-11T11:08:37.609Z,506.25
2019-04-11T11:09:38.772Z,511.88
2019-04-11T11:10:37.567Z,511.88
2019-04-11T11:11:37.319Z,511.88
2019-04-11T11:21:19.762Z,528.75
2019-04-11T11:22:18.948Z,534.38
2019-04-11T11:23:18.927Z,534.38
2019-04-11T11:24:19.739Z,540.00
2019-04-11T11:25:19.566Z,545.63
2019-04-11T11:26:22.717Z,551.25
2019-04-11T11:27:18.849Z,556.88
2019-04-11T11:28:18.834Z,562.50
2019-04-11T11:29:19.247Z,562.50
2019-04-11T11:30:18.822Z,562.50
2019-04-11T11:31:19.950Z,568.13
2019-04-11T11:32:18.960Z,568.13
2019-04-11T11:33:18.741Z,573.75
2019-04-11T11:34:20.327Z,573.75
2019-04-11T11:35:22.581Z,579.38
2019-04-11T11:36:19.402Z,579.38
2019-04-11T11:37:18.806Z,585.00
2019-04-11T11:38:19.786Z,590.63
2019-04-11T11:39:19.338Z,590.63
2019-04-11T11:40:18.963Z,601.88
2019-04-11T11:41:18.603Z,596.25
2019-04-11T11:42:19.827Z,601.88
2019-04-11T11:43:19.046Z,601.88
2019-04-11T11:44:19.501Z,607.50
2019-04-11T11:45:19.520Z,607.50
2019-04-11T11:46:19.358Z,607.50
2019-04-11T11:47:19.514Z,613.13
2019-04-11T11:48:20.776Z,613.13
2019-04-11T11:49:36.273Z,618.75
2019-04-11T11:50:21.613Z,618.75
2019-04-11T11:51:20.919Z,624.38
2019-04-11T11:52:19.313Z,624.38
2019-04-11T11:53:18.509Z,630.00
2019-04-11T11:54:19.696Z,630.00
2019-04-11T11:55:20.066Z,630.00
2019-04-11T11:56:18.353Z,630.00
2019-04-11T11:57:18.408Z,635.63
2019-04-11T11:58:19.820Z,635.63
2019-04-11T11:59:19.414Z,635.63
2019-04-11T12:00:18.292Z,641.25
2019-04-11T12:01:18.276Z,641.25
2019-04-11T12:02:20.888Z,646.88
2019-04-11T12:03:19.093Z,646.88
2019-04-11T12:04:19.092Z,652.50
2019-04-11T12:05:18.587Z,652.50
2019-04-11T12:06:22.324Z,652.50
2019-04-11T12:07:18.957Z,658.13
2019-04-11T12:08:18.330Z,658.13
2019-04-11T12:09:18.382Z,669.38
2019-04-11T12:10:19.469Z,663.75
2019-04-11T12:11:18.118Z,663.75
2019-04-11T12:12:18.118Z,669.38
2019-04-11T12:13:19.163Z,669.38
2019-04-11T12:14:18.156Z,675.00
2019-04-11T12:15:22.053Z,686.25
2019-04-11T12:16:21.417Z,686.25
2019-04-11T12:17:18.603Z,697.50
2019-04-11T12:18:18.891Z,703.13
2019-04-11T12:19:20.366Z,720.00
2019-04-11T12:20:18.573Z,742.50
2019-04-11T12:21:21.856Z,781.88
2019-04-11T12:22:18.083Z,860.63
2019-04-11T12:23:17.951Z,1113.75
2019-04-11T12:24:17.926Z,1327.50
2019-04-11T12:25:17.909Z,1788.75
2019-04-11T12:26:18.394Z,1968.75
2019-04-11T12:27:18.467Z,2531.25
2019-04-11T12:28:18.015Z,3240.00
2019-04-11T12:29:18.590Z,3465.00
2019-04-11T12:30:20.839Z,3386.25
2019-04-11T12:31:17.820Z,3493.13
2019-04-11T12:32:17.806Z,4010.63
2019-04-11T12:33:17.806Z,3903.75
2019-04-11T12:34:18.667Z,3763.13
2019-04-11T12:35:17.834Z,3870.00
2019-04-11T12:36:18.744Z,4348.13
2019-04-11T12:37:19.802Z,3931.88
2019-04-11T12:38:20.283Z,4252.50
2019-04-11T12:39:17.706Z,4348.13
2019-04-11T12:40:17.691Z,4342.50
2019-04-11T12:41:20.075Z,3881.25
2019-04-11T12:42:17.662Z,3611.25
2019-04-11T12:43:17.669Z,3628.13
2019-04-11T12:44:17.634Z,4308.75
2019-04-11T12:45:17.621Z,4235.63
2019-04-11T12:46:17.608Z,3706.88
2019-04-11T12:47:17.597Z,3954.38
2019-04-11T12:48:17.594Z,4190.63
2019-04-11T12:49:17.566Z,4365.00
2019-04-11T12:50:17.553Z,4038.75
2019-04-11T12:51:17.538Z,3965.63
2019-04-11T12:52:17.524Z,3825.00
2019-04-11T12:53:17.511Z,3684.38
2019-04-11T12:54:17.513Z,4246.88
2019-04-11T12:55:17.519Z,4128.75
2019-04-11T12:56:17.469Z,4055.63
2019-04-11T12:57:17.456Z,4128.75
2019-04-11T12:58:17.461Z,3993.75
2019-04-11T12:59:17.427Z,3898.13
2019-04-11T13:00:17.416Z,4021.88
2019-04-11T13:01:17.406Z,4303.13
2019-04-11T13:02:17.391Z,3954.38
2019-04-11T13:03:17.378Z,3903.75
2019-04-11T13:04:17.376Z,3487.50
2019-04-11T13:05:17.350Z,4449.38
2019-04-11T13:06:17.345Z,4168.13
2019-04-11T13:07:17.327Z,3898.13
2019-04-11T13:08:17.320Z,3841.88
2019-04-11T13:09:17.315Z,4044.38
2019-04-11T13:10:17.286Z,3937.50
2019-04-11T13:11:17.274Z,3965.63
2019-04-11T13:12:17.260Z,4308.75
2019-04-11T13:13:17.247Z,3588.75
2019-04-11T13:14:17.245Z,3616.88
2019-04-11T13:15:17.220Z,3718.13
2019-04-11T13:16:17.207Z,3948.75
2019-04-11T13:17:17.205Z,3870.00
2019-04-11T13:18:17.182Z,3127.50
2019-04-11T13:19:17.206Z,3712.50
2019-04-11T13:20:17.155Z,4128.75
2019-04-11T13:21:17.145Z,4055.63
2019-04-11T13:22:17.134Z,3521.25
2019-04-11T13:23:17.119Z,3555.00
2019-04-11T13:24:17.106Z,4027.50
2019-04-11T13:25:17.108Z,4263.75
2019-04-11T13:26:17.083Z,3757.50
2019-04-11T13:27:17.072Z,3577.50
2019-04-11T13:28:17.057Z,3999.38
2019-04-11T13:29:17.046Z,4218.75
2019-04-11T13:30:17.048Z,3459.38
2019-04-11T13:31:17.021Z,3825.00
2019-04-11T13:32:17.010Z,3858.75
2019-04-11T13:33:16.999Z,3881.25
2019-04-11T13:34:16.990Z,3881.25
2019-04-11T13:35:16.988Z,3656.25
2019-04-11T13:36:16.962Z,4061.25
2019-04-11T13:37:16.956Z,3841.88
2019-04-11T13:38:17.381Z,3656.25
2019-04-11T13:39:16.927Z,4421.25
2019-04-11T13:40:16.934Z,3735.00
2019-04-11T13:41:16.907Z,3988.13
2019-04-11T13:42:16.900Z,4106.25
2019-04-11T13:43:16.883Z,3594.38
2019-04-11T13:44:16.873Z,4168.13
2019-04-11T13:45:16.875Z,3808.13
2019-04-11T13:46:16.853Z,3982.50
2019-04-11T13:47:16.839Z,4168.13
2019-04-11T13:48:16.829Z,3555.00
2019-04-11T13:49:16.821Z,3903.75
2019-04-11T13:50:17.132Z,4128.75
2019-04-11T13:51:16.811Z,4111.88
2019-04-11T13:52:16.787Z,4196.25
2019-04-11T13:53:16.776Z,4381.88
2019-04-11T13:54:16.765Z,4438.13
2019-04-11T13:55:16.753Z,4471.88
2019-04-11T13:56:16.761Z,4646.25
2019-04-11T13:57:16.737Z,4567.50
2019-04-11T13:58:16.721Z,4224.38
2019-04-11T13:59:16.713Z,4291.88
2019-04-11T14:00:16.719Z,4488.75
2019-04-11T14:01:16.691Z,4308.75
2019-04-11T14:02:16.683Z,4010.63
2019-04-11T14:03:16.672Z,3695.63
2019-04-11T14:04:16.660Z,3296.25
2019-04-11T14:05:16.689Z,2953.13
2019-04-11T14:06:16.640Z,2773.13
2019-04-11T14:07:16.630Z,2806.88
2019-04-11T14:08:17.937Z,2823.75
2019-04-11T14:09:16.610Z,2649.38
2019-04-11T14:10:16.600Z,2311.88
2019-04-11T14:11:16.602Z,2390.63
2019-04-11T14:12:16.580Z,2261.25
2019-04-11T14:13:16.573Z,2053.13
2019-04-11T14:14:16.563Z,2120.63
2019-04-11T14:15:16.551Z,2250.00
2019-04-11T14:16:16.559Z,2227.50
2019-04-11T14:17:16.536Z,2193.75
2019-04-11T14:18:16.525Z,2171.25
2019-04-11T14:19:16.513Z,2131.88
2019-04-11T14:20:28.243Z,2199.38
2019-04-11T14:21:16.512Z,2306.25
2019-04-11T14:22:16.489Z,2345.63
2019-04-11T14:23:16.479Z,2396.25
2019-04-11T14:24:16.470Z,2458.13
2019-04-11T14:25:16.462Z,2390.63
2019-04-11T14:26:16.495Z,2356.88
2019-04-11T14:27:16.447Z,2463.75
2019-04-11T14:28:16.437Z,2615.63
2019-04-11T14:29:16.428Z,2863.13
2019-04-11T14:30:18.552Z,2958.75
2019-04-11T14:31:16.411Z,2975.63
2019-04-11T14:32:16.418Z,3285.00
2019-04-11T14:33:16.398Z,4117.50
2019-04-11T14:34:16.387Z,4359.38
2019-04-11T14:35:16.383Z,3611.25
2019-04-11T14:36:16.371Z,3234.38
2019-04-11T14:37:16.379Z,3391.88
2019-04-11T14:38:16.360Z,3555.00
2019-04-11T14:39:16.369Z,3684.38
2019-04-11T14:40:16.340Z,3555.00
2019-04-11T14:41:16.387Z,3701.25
2019-04-11T14:42:16.352Z,3324.38
2019-04-11T14:43:16.874Z,3155.63
2019-04-11T14:44:16.476Z,3324.38
2019-04-11T14:45:16.331Z,3375.00
2019-04-11T14:46:16.319Z,3358.13
2019-04-11T14:47:16.300Z,3408.75
2019-04-11T14:48:16.276Z,3071.25
2019-04-11T14:49:16.267Z,3015.00
2019-04-11T14:50:16.282Z,3420.00
2019-04-11T14:51:16.894Z,3307.50
2019-04-11T14:52:17.291Z,3217.50
2019-04-11T14:53:16.951Z,3183.75
2019-04-11T14:54:18.300Z,2913.75
2019-04-11T14:55:16.788Z,3071.25
2019-04-11T14:56:16.235Z,3256.88
2019-04-11T14:57:16.208Z,3037.50
2019-04-11T14:58:16.194Z,2981.25
2019-04-11T14:59:16.188Z,2863.13
2019-04-11T15:00:16.181Z,2925.00
2019-04-11T15:01:16.176Z,3161.25
2019-04-11T15:02:16.190Z,3240.00
2019-04-11T15:03:16.164Z,3088.13
2019-04-11T15:04:16.156Z,2964.38
2019-04-11T15:05:16.161Z,3043.13
2019-04-11T15:06:16.142Z,3048.75
2019-04-11T15:07:16.146Z,3099.38
2019-04-11T15:08:17.769Z,2953.13
2019-04-11T15:09:16.870Z,3195.00
2019-04-11T15:10:17.051Z,3172.50
2019-04-11T15:11:18.410Z,2868.75
2019-04-11T15:12:17.927Z,2868.75
2019-04-11T15:13:17.956Z,2863.13
2019-04-11T15:14:17.665Z,2908.13
2019-04-11T15:15:16.085Z,2941.88
2019-04-11T15:16:16.076Z,2947.50
2019-04-11T15:17:16.076Z,2919.38
2019-04-11T15:18:16.080Z,2750.63
2019-04-11T15:19:16.048Z,2733.75
2019-04-11T15:20:16.052Z,2030.63
2019-04-11T15:21:16.042Z,1113.75
2019-04-11T15:22:16.061Z,877.50
2019-04-11T15:23:16.022Z,776.25
2019-04-11T15:24:16.013Z,725.63
2019-04-11T15:25:16.005Z,708.75
2019-04-11T15:26:15.997Z,697.50
2019-04-11T15:27:16.012Z,691.88
2019-04-11T15:28:15.979Z,691.88
2019-04-11T15:29:15.970Z,686.25
2019-04-11T15:30:16.956Z,686.25
2019-04-11T15:31:18.423Z,686.25
2019-04-11T15:32:15.949Z,686.25
2019-04-11T15:33:15.957Z,697.50
2019-04-11T15:34:15.921Z,708.75
2019-04-11T15:35:15.913Z,725.63
2019-04-11T15:36:15.898Z,748.13
2019-04-11T15:37:15.886Z,798.75
2019-04-11T15:38:15.890Z,1091.25
2019-04-11T15:39:15.864Z,1400.63
2019-04-11T15:40:15.857Z,1783.13
2019-04-11T15:41:15.841Z,2227.50
2019-04-11T15:42:16.129Z,2514.38
2019-04-11T15:43:15.832Z,2643.75
2019-04-11T15:44:15.804Z,2570.63
2019-04-11T15:45:15.791Z,2486.25
2019-04-11T15:46:17.007Z,2576.25
2019-04-11T15:47:18.761Z,2463.75
2019-04-11T15:48:17.861Z,2340.00
2019-04-11T15:49:21.952Z,2536.88
2019-04-11T15:50:15.732Z,2070.00
2019-04-11T15:51:15.724Z,1141.88
2019-04-11T15:52:15.710Z,703.13
2019-04-11T15:53:15.711Z,652.50
2019-04-11T15:54:15.686Z,680.63
2019-04-11T15:55:15.675Z,855.00
2019-04-11T15:56:15.667Z,1136.25
2019-04-11T15:57:15.657Z,1620.00
2019-04-11T15:58:15.657Z,2176.88
2019-04-11T15:59:15.632Z,2221.88
2019-04-11T16:00:15.619Z,2131.88
2019-04-11T16:01:15.614Z,2148.75
2019-04-11T16:02:15.596Z,2075.63
2019-04-11T16:03:15.596Z,1974.38
2019-04-11T16:04:15.571Z,1811.25
2019-04-11T16:05:15.561Z,1816.88
2019-04-11T16:06:15.549Z,2041.88
2019-04-11T16:07:15.539Z,2008.13
2019-04-11T16:08:15.547Z,1946.25
2019-04-11T16:09:15.519Z,2002.50
2019-04-11T16:10:15.516Z,2013.75
2019-04-11T16:11:15.504Z,1985.63
2019-04-11T16:12:17.008Z,1929.38
2019-04-11T16:13:15.479Z,1912.50
2019-04-11T16:14:15.484Z,1856.25
2019-04-11T16:15:15.461Z,1816.88
2019-04-11T16:16:15.451Z,1822.50
2019-04-11T16:17:15.449Z,1873.13
2019-04-11T16:18:15.991Z,1878.75
2019-04-11T16:19:17.148Z,1749.38
2019-04-11T16:20:17.811Z,1732.50
2019-04-11T16:21:18.646Z,1794.38
2019-04-11T16:22:15.399Z,1794.38
2019-04-11T16:23:15.454Z,1755.00
2019-04-11T16:24:15.419Z,1766.25
2019-04-11T16:25:15.377Z,1749.38
2019-04-11T16:26:15.368Z,1760.63
2019-04-11T16:27:15.359Z,1653.75
2019-04-11T16:28:15.353Z,1580.63
2019-04-11T16:29:15.344Z,1625.63
2019-04-11T16:30:15.350Z,1665.00
2019-04-11T16:31:15.332Z,1659.38
2019-04-11T16:32:15.323Z,1614.38
2019-04-11T16:33:15.313Z,1355.63
2019-04-11T16:34:16.077Z,1321.88
2019-04-11T16:35:15.310Z,1001.25
2019-04-11T16:36:15.289Z,1153.13
2019-04-11T16:37:17.774Z,1411.88
2019-04-11T16:38:18.830Z,1423.13
2019-04-11T16:39:15.265Z,1389.38
2019-04-11T16:40:15.312Z,1355.63
2019-04-11T16:41:15.251Z,1096.88
2019-04-11T16:42:15.241Z,871.88
2019-04-11T16:43:15.235Z,984.38
2019-04-11T16:44:15.227Z,1254.38
2019-04-11T16:45:15.231Z,1271.25
2019-04-11T16:46:15.208Z,1226.25
2019-04-11T16:47:15.202Z,1215.00
2019-04-11T16:48:15.199Z,1254.38
2019-04-11T16:49:15.183Z,1231.88
2019-04-11T16:50:15.210Z,1181.25
2019-04-11T16:51:15.164Z,1175.63
2019-04-11T16:52:15.166Z,1198.13
2019-04-11T16:53:15.161Z,1164.38
2019-04-11T16:54:15.141Z,1141.88
2019-04-11T16:55:15.137Z,1119.38
2019-04-11T16:56:15.141Z,950.63
2019-04-11T16:57:15.115Z,883.13
2019-04-11T16:58:19.307Z,860.63
2019-04-11T16:59:15.096Z,663.75
2019-04-11T17:00:15.089Z,556.88
2019-04-11T17:01:15.095Z,517.50
2019-04-11T17:02:15.071Z,421.88
2019-04-11T17:03:17.207Z,382.50
2019-04-11T17:04:15.051Z,360.00
2019-04-11T17:05:15.039Z,354.38
2019-04-11T17:06:15.044Z,348.75
2019-04-11T17:07:15.018Z,343.13
2019-04-11T17:08:15.006Z,337.50
2019-04-11T17:09:14.996Z,331.88
2019-04-11T17:10:14.983Z,326.25
2019-04-11T17:11:14.990Z,320.63
2019-04-11T17:12:14.958Z,315.00
2019-04-11T17:13:14.946Z,315.00
2019-04-11T17:14:14.934Z,309.38
2019-04-11T17:15:14.917Z,303.75
2019-04-11T17:16:14.904Z,298.13
2019-04-11T17:17:15.601Z,292.50
2019-04-11T17:18:14.877Z,286.88
2019-04-11T17:19:14.862Z,292.50
2019-04-11T17:20:14.849Z,281.25
2019-04-11T17:21:14.850Z,275.63
2019-04-11T17:22:16.857Z,270.00
2019-04-11T17:23:17.240Z,264.38
2019-04-11T17:24:16.716Z,258.75
2019-04-11T17:25:14.776Z,253.13
2019-04-11T17:26:14.760Z,253.13
2019-04-11T17:27:14.758Z,253.13
2019-04-11T17:28:14.731Z,253.13
2019-04-11T17:30:46.768Z,241.88
2019-04-11T17:31:46.750Z,241.88
2019-04-11T17:32:46.766Z,241.88
2019-04-11T17:33:46.717Z,225.00
2019-04-11T17:34:46.702Z,213.75
2019-04-11T17:35:46.686Z,202.50
2019-04-11T17:36:46.666Z,196.88
2019-04-11T17:37:46.799Z,191.25
2019-04-11T17:38:46.649Z,185.63
2019-04-11T17:39:46.627Z,180.00
2019-04-11T17:40:46.601Z,174.38
2019-04-11T17:41:46.584Z,168.75
2019-04-11T17:42:46.586Z,163.13
2019-04-11T17:43:47.004Z,157.50
2019-04-11T17:44:46.534Z,151.88
2019-04-11T17:45:46.517Z,146.25
2019-04-11T17:46:46.502Z,140.63
2019-04-11T17:47:46.485Z,135.00
2019-04-11T17:48:46.486Z,129.38
2019-04-11T17:49:46.453Z,123.75
2019-04-11T17:50:46.437Z,118.13
2019-04-11T17:51:55.255Z,112.50
2019-04-11T17:52:46.403Z,106.88
2019-04-11T17:53:46.396Z,101.25
2019-04-11T17:54:46.367Z,101.25
2019-04-11T17:55:46.348Z,95.63
2019-04-11T17:56:46.328Z,90.00
2019-04-11T17:57:46.311Z,90.00
2019-04-11T17:58:46.309Z,84.38
2019-04-11T17:59:48.653Z,84.38
2019-04-11T18:00:46.259Z,78.75
2019-04-11T18:01:46.239Z,73.13
2019-04-11T18:02:46.427Z,67.50
2019-04-11T18:03:46.227Z,67.50
2019-04-11T18:04:47.887Z,61.88
2019-04-11T18:05:47.116Z,56.25
2019-04-11T18:06:47.262Z,56.25
2019-04-11T18:07:47.545Z,50.63
2019-04-11T18:08:46.706Z,45.00
2019-04-11T18:09:46.111Z,45.00
2019-04-11T18:10:46.082Z,39.38
2019-04-11T18:11:46.063Z,39.38
2019-04-11T18:12:46.043Z,33.75
2019-04-11T18:13:46.030Z,33.75
2019-04-11T18:14:46.019Z,28.13
2019-04-11T18:15:45.998Z,28.13
2019-04-11T18:16:45.968Z,22.50
2019-04-11T18:17:45.952Z,22.50
2019-04-11T18:18:45.933Z,22.50
2019-04-11T18:19:45.932Z,16.88
2019-04-11T18:20:45.893Z,16.88
2019-04-11T18:21:45.876Z,16.88
2019-04-11T18:22:46.294Z,11.25
2019-04-11T18:23:49.808Z,11.25
2019-04-11T18:24:49.881Z,11.25
2019-04-11T18:25:45.815Z,11.25
2019-04-11T18:26:45.786Z,5.63
2019-04-11T18:27:45.766Z,5.63
2019-04-11T18:28:45.743Z,5.63
2019-04-11T18:29:45.724Z,5.63
2019-04-11T18:30:45.726Z,5.63
2019-04-11T18:31:45.687Z,5.63
2019-04-11T18:32:45.668Z,0.00
2019-04-11T18:33:45.648Z,0.00
2019-04-11T18:34:45.628Z,0.00
2019-04-11T18:35:45.611Z,0.00
2019-04-11T18:36:45.603Z,0.00
2019-04-11T18:37:45.568Z,0.00
2019-04-11T18:38:45.554Z,0.00
2019-04-11T18:39:45.533Z,0.00
2019-04-11T18:40:45.513Z,0.00
2019-04-11T18:41:45.511Z,0.00
2019-04-11T18:42:45.482Z,0.00
2019-04-11T18:43:47.247Z,0.00
2019-04-11T18:44:45.432Z,0.00
2019-04-11T18:45:45.418Z,0.00
2019-04-11T18:46:45.410Z,0.00
2019-04-11T18:47:45.376Z,0.00
2019-04-11T18:48:45.356Z,0.00
2019-04-11T18:49:45.339Z,0.00
2019-04-11T18:50:45.318Z,0.00
2019-04-11T18:51:45.315Z,0.00
2019-04-11T18:52:45.278Z,0.00
2019-04-11T18:53:45.258Z,0.00
2019-04-11T18:54:45.237Z,0.00
2019-04-11T18:55:45.220Z,0.00
2019-04-11T18:56:45.218Z,0.00
2019-04-11T18:57:45.180Z,0.00
2019-04-11T18:58:45.160Z,0.00
2019-04-11T18:59:45.140Z,0.00
2019-04-11T19:00:45.119Z,0.00
2019-04-11T19:01:45.098Z,0.00
2019-04-11T19:02:45.093Z,0.00
2019-04-11T19:03:45.059Z,0.00
2019-04-11T19:04:45.040Z,0.00
2019-04-11T19:05:45.020Z,0.00
2019-04-11T19:06:45.000Z,0.00
2019-04-11T19:07:44.990Z,0.00
2019-04-11T19:08:44.960Z,0.00
2019-04-11T19:09:44.941Z,0.00
2019-04-11T19:10:45.770Z,0.00
2019-04-11T19:11:46.263Z,0.00
2019-04-11T19:12:46.485Z,0.00
2019-04-11T19:13:47.085Z,0.00
2019-04-11T19:14:46.095Z,0.00
2019-04-11T19:15:45.691Z,0.00
2019-04-11T19:16:46.009Z,0.00
2019-04-11T19:17:46.806Z,0.00
2019-04-11T19:18:47.651Z,0.00
2019-04-11T19:19:48.650Z,0.00
2019-04-11T19:20:44.713Z,0.00
2019-04-11T19:21:44.692Z,0.00
2019-04-11T19:22:44.675Z,0.00
2019-04-11T19:23:44.666Z,0.00
2019-04-11T19:24:44.632Z,0.00
2019-04-11T19:25:45.267Z,0.00
2019-04-11T19:26:46.380Z,0.00
2019-04-11T19:27:44.571Z,0.00
2019-04-11T19:28:44.563Z,0.00
2019-04-11T19:29:44.528Z,0.00
2019-04-11T19:30:44.508Z,0.00
2019-04-11T19:31:44.490Z,0.00
2019-04-11T19:32:44.467Z,0.00
2019-04-11T19:33:44.460Z,0.00
2019-04-11T19:34:44.427Z,0.00
2019-04-11T19:35:44.408Z,0.00
2019-04-11T19:36:44.386Z,0.00
2019-04-11T19:37:44.362Z,0.00
2019-04-11T19:38:44.362Z,0.00
2019-04-11T19:39:45.384Z,0.00
2019-04-11T19:40:47.005Z,0.00
2019-04-11T19:41:47.841Z,0.00
2019-04-11T19:42:44.280Z,0.00
2019-04-11T19:43:44.240Z,0.00
2019-04-11T19:44:44.230Z,0.00
2019-04-11T19:45:44.197Z,0.00
2019-04-11T19:46:44.174Z,0.00
2019-04-11T19:47:44.155Z,0.00
2019-04-11T19:48:44.133Z,0.00
2019-04-11T19:49:44.127Z,0.00
2019-04-11T19:50:44.092Z,0.00
2019-04-11T19:51:44.076Z,0.00
2019-04-11T19:52:45.778Z,0.00
2019-04-11T19:53:44.032Z,0.00
2019-04-11T19:54:44.022Z,0.00
2019-04-11T19:55:44.013Z,0.00
2019-04-11T19:56:43.966Z,0.00
2019-04-11T19:57:43.946Z,0.00
2019-04-11T19:58:43.923Z,0.00
2019-04-11T19:59:43.930Z,0.00
2019-04-11T20:00:43.880Z,0.00
2019-04-11T20:01:43.867Z,0.00
2019-04-11T20:02:43.840Z,0.00
2019-04-11T20:03:43.830Z,0.00
2019-04-11T20:04:46.442Z,0.00
2019-04-11T20:05:43.790Z,0.00
2019-04-11T20:06:43.759Z,0.00
2019-04-11T20:07:43.733Z,0.00
2019-04-11T20:08:43.720Z,0.00
2019-04-11T20:09:43.690Z,0.00
2019-04-11T20:10:43.683Z,0.00
2019-04-11T20:11:44.860Z,0.00
2019-04-11T20:12:43.627Z,0.00
2019-04-11T20:13:43.619Z,0.00
2019-04-11T20:14:43.585Z,0.00
2019-04-11T20:15:43.581Z,0.00
2019-04-11T20:16:48.128Z,0.00
2019-04-11T20:17:44.747Z,0.00
2019-04-11T20:18:50.709Z,0.00
2019-04-11T20:19:43.481Z,0.00
2019-04-11T20:20:43.473Z,0.00
2019-04-11T20:21:43.438Z,0.00
2019-04-11T20:22:43.415Z,0.00
2019-04-11T20:23:43.394Z,0.00
2019-04-11T20:24:46.822Z,0.00
2019-04-11T20:25:46.174Z,0.00
2019-04-11T20:26:43.330Z,0.00
2019-04-11T20:27:43.312Z,0.00
2019-04-11T20:28:43.287Z,0.00
2019-04-11T20:29:43.271Z,0.00
2019-04-11T20:30:43.243Z,0.00
2019-04-11T20:31:43.239Z,0.00
2019-04-11T20:32:43.203Z,0.00
2019-04-11T20:33:43.180Z,0.00
2019-04-11T20:34:43.157Z,0.00
2019-04-11T20:35:43.134Z,0.00
2019-04-11T20:36:43.130Z,0.00
2019-04-11T20:37:44.655Z,0.00
2019-04-11T20:38:44.729Z,0.00
2019-04-11T20:39:46.398Z,0.00
2019-04-11T20:40:43.028Z,0.00
2019-04-11T20:41:43.046Z,0.00
2019-04-11T20:42:42.986Z,0.00
2019-04-11T20:43:43.260Z,0.00
2019-04-11T20:44:42.941Z,0.00
2019-04-11T20:45:42.921Z,0.00
2019-04-11T20:46:42.899Z,0.00
2019-04-11T20:47:42.905Z,0.00
2019-04-11T20:48:42.854Z,0.00
2019-04-11T20:49:42.833Z,0.00
2019-04-11T20:50:42.811Z,0.00
2019-04-11T20:51:42.794Z,0.00
2019-04-11T20:52:42.781Z,0.00
2019-04-11T20:53:42.745Z,0.00
2019-04-11T20:54:45.198Z,0.00
2019-04-11T20:55:42.704Z,0.00
2019-04-11T20:56:42.680Z,0.00
2019-04-11T20:57:42.680Z,0.00
2019-04-11T20:58:42.644Z,0.00
2019-04-11T20:59:42.717Z,0.00
2019-04-11T21:00:50.144Z,0.00
2019-04-11T21:01:42.573Z,0.00
2019-04-11T21:02:42.566Z,0.00
2019-04-11T21:03:42.534Z,0.00
2019-04-11T21:04:42.507Z,0.00
2019-04-11T21:05:42.484Z,0.00
2019-04-11T21:06:42.461Z,0.00
2019-04-11T21:07:42.460Z,0.00
2019-04-11T21:08:42.419Z,0.00
2019-04-11T21:09:42.409Z,0.00
2019-04-11T21:10:42.380Z,0.00
2019-04-11T21:11:42.356Z,0.00
2019-04-11T21:12:42.336Z,0.00
2019-04-11T21:13:42.324Z,0.00
2019-04-11T21:14:42.299Z,0.00
2019-04-11T21:15:42.266Z,0.00
2019-04-11T21:16:42.244Z,0.00
2019-04-11T21:17:42.221Z,0.00
2019-04-11T21:18:42.216Z,0.00
2019-04-11T21:19:42.177Z,0.00
2019-04-11T21:20:42.156Z,0.00
2019-04-11T21:21:42.137Z,0.00
2019-04-11T21:22:42.112Z,0.00
2019-04-11T21:23:42.103Z,0.00
2019-04-11T21:24:42.066Z,0.00
2019-04-11T21:25:42.064Z,0.00
2019-04-11T21:26:42.024Z,0.00
2019-04-11T21:27:42.001Z,0.00
2019-04-11T21:28:42.015Z,0.00
2019-04-11T21:29:41.958Z,0.00
2019-04-11T21:30:41.939Z,0.00
2019-04-11T21:31:41.914Z,0.00
2019-04-11T21:32:41.891Z,0.00
2019-04-11T21:33:41.870Z,0.00
2019-04-11T21:34:41.858Z,0.00
2019-04-11T21:35:41.823Z,0.00
2019-04-11T21:36:41.807Z,0.00
2019-04-11T21:37:41.790Z,0.00
2019-04-11T21:38:41.757Z,0.00
2019-04-11T21:39:41.748Z,0.00
2019-04-11T21:40:41.715Z,0.00
2019-04-11T21:41:41.691Z,0.00
2019-04-11T21:42:41.667Z,0.00
2019-04-11T21:43:41.654Z,0.00
2019-04-11T21:44:41.638Z,0.00
2019-04-11T21:45:41.609Z,0.00
2019-04-11T21:46:41.970Z,0.00
2019-04-11T21:47:41.574Z,0.00
2019-04-11T21:48:41.534Z,0.00
2019-04-11T21:49:41.527Z,0.00
2019-04-11T21:50:41.491Z,0.00
2019-04-11T21:51:42.485Z,0.00
2019-04-11T21:52:43.633Z,0.00
2019-04-11T21:53:44.277Z,0.00
2019-04-11T21:54:45.031Z,0.00
2019-04-11T21:55:41.381Z,0.00
2019-04-11T21:56:41.356Z,0.00
2019-04-11T21:57:41.337Z,0.00
2019-04-11T21:58:41.314Z,0.00
2019-04-11T21:59:41.291Z,0.00
2019-04-11T22:00:41.283Z,0.00
2019-04-11T22:01:41.246Z,0.00
2019-04-11T22:02:41.224Z,0.00
2019-04-11T22:03:41.199Z,0.00
2019-04-11T22:04:41.176Z,0.00
2019-04-11T22:05:41.166Z,0.00
2019-04-11T22:06:41.132Z,0.00
2019-04-11T22:07:41.111Z,0.00
2019-04-11T22:08:41.088Z,0.00
2019-04-11T22:09:41.065Z,0.00
2019-04-11T22:10:41.112Z,0.00
2019-04-11T22:11:41.024Z,0.00
2019-04-11T22:12:40.996Z,0.00
2019-04-11T22:13:41.012Z,0.00